Time;durP1;ratioP1;P1;durP2;ratioP2;P2;SDS_P1;SDS_P2;PMS_P1;PMS_P2;Temp;Humidity;BMP_temperature;BMP_pressure;BME280_temperature;BME280_humidity;BME280_pressure;Samples;Min_cycle;Max_cycle;Signal;HPM_P1;HPM_P2
2023/06/04 00:00:22;;;;;;;40.10;21.90;;;9.80;99.90;;;;;;5005653;28;20999;-51
2023/06/04 00:02:49;;;;;;;22.63;10.00;;;9.70;99.90;;;;;;4994824;28;20499;-51
2023/06/04 00:05:16;;;;;;;15.40;10.10;;;9.80;99.90;;;;;;5004855;28;20552;-50
2023/06/04 00:07:43;;;;;;;14.73;8.83;;;9.70;99.90;;;;;;5014279;28;20471;-50
2023/06/04 00:10:10;;;;;;;25.50;15.10;;;9.70;99.90;;;;;;5002830;28;20494;-50
2023/06/04 00:12:37;;;;;;;15.20;10.20;;;9.60;99.90;;;;;;5011760;28;20471;-53
2023/06/04 00:15:04;;;;;;;10.13;6.40;;;9.60;99.90;;;;;;5011506;28;20559;-50
2023/06/04 00:17:31;;;;;;;9.13;5.70;;;9.60;99.90;;;;;;5013894;28;20554;-49
2023/06/04 00:19:59;;;;;;;5.03;4.47;;;9.60;99.90;;;;;;5012281;28;20900;-50
2023/06/04 00:22:25;;;;;;;6.27;4.23;;;9.60;99.90;;;;;;5013993;28;20480;-51
2023/06/04 00:24:52;;;;;;;3.10;2.90;;;9.60;99.90;;;;;;5012142;28;20496;-50
2023/06/04 00:27:18;;;;;;;2.60;2.23;;;9.50;99.90;;;;;;5011173;28;20515;-50
2023/06/04 00:29:45;;;;;;;3.40;2.17;;;9.60;99.90;;;;;;5012811;28;20636;-50
2023/06/04 00:32:11;;;;;;;3.77;2.67;;;9.50;99.90;;;;;;5006122;28;20496;-51
2023/06/04 00:34:38;;;;;;;4.47;2.50;;;9.50;99.90;;;;;;5010366;28;20496;-50
2023/06/04 00:37:06;;;;;;;2.30;2.10;;;9.50;99.90;;;;;;5013697;28;20542;-50
2023/06/04 00:39:34;;;;;;;2.53;2.30;;;9.50;99.90;;;;;;5011787;28;20510;-50
2023/06/04 00:42:01;;;;;;;1.87;1.77;;;9.50;99.90;;;;;;5013625;28;20448;-50
2023/06/04 00:44:28;;;;;;;2.60;2.50;;;9.40;99.90;;;;;;5011239;28;20551;-50
2023/06/04 00:46:54;;;;;;;2.50;2.30;;;9.30;99.90;;;;;;5010135;28;20504;-50
2023/06/04 00:49:21;;;;;;;3.80;2.30;;;9.20;99.90;;;;;;5013964;28;20559;-51
2023/06/04 00:51:48;;;;;;;2.43;2.23;;;9.10;99.90;;;;;;5013679;28;20535;-49
2023/06/04 00:54:17;;;;;;;3.70;2.10;;;9.10;99.90;;;;;;5012681;28;20567;-49
2023/06/04 00:56:44;;;;;;;1.90;1.80;;;9.10;99.90;;;;;;5021912;23;20507;-54
2023/06/04 00:59:11;;;;;;;2.13;2.03;;;9.00;99.90;;;;;;4993521;28;20445;-54
2023/06/04 01:01:55;;;;;;;3.63;2.30;;;9.00;99.90;;;;;;4991719;28;20935;-53
2023/06/04 01:04:27;;;;;;;6.53;2.60;;;8.90;99.90;;;;;;4990227;28;20496;-54
2023/06/04 01:06:57;;;;;;;2.97;2.20;;;8.90;99.90;;;;;;4992169;28;20508;-55
2023/06/04 01:09:26;;;;;;;2.27;2.03;;;8.80;99.90;;;;;;4984555;28;21634;-54
2023/06/04 01:11:53;;;;;;;4.90;2.97;;;8.80;99.90;;;;;;4991131;28;20485;-54
2023/06/04 01:14:20;;;;;;;3.63;2.70;;;8.70;99.90;;;;;;4986363;28;20495;-55
2023/06/04 01:16:50;;;;;;;6.80;3.50;;;8.60;99.90;;;;;;4983216;28;20576;-54
2023/06/04 01:19:37;;;;;;;7.27;3.40;;;8.60;99.90;;;;;;4986942;28;20461;-55
2023/06/04 01:22:10;;;;;;;3.43;2.70;;;8.50;99.90;;;;;;4991114;28;20946;-53
2023/06/04 01:24:40;;;;;;;4.23;3.33;;;8.40;99.90;;;;;;4987520;28;20899;-54
2023/06/04 01:27:08;;;;;;;2.57;2.37;;;8.30;92.10;;;;;;4993266;28;20481;-55
2023/06/04 01:29:36;;;;;;;4.17;2.90;;;8.30;75.30;;;;;;4993323;28;20507;-53
2023/06/04 01:32:03;;;;;;;3.93;2.30;;;8.20;64.10;;;;;;4989790;28;20454;-53
2023/06/04 01:34:29;;;;;;;2.93;2.43;;;8.10;56.40;;;;;;4988488;28;20483;-54
2023/06/04 01:36:56;;;;;;;2.10;2.00;;;8.00;99.90;;;;;;4982351;28;20493;-54
2023/06/04 01:39:23;;;;;;;6.10;2.70;;;8.10;99.90;;;;;;4987101;28;20499;-55
2023/06/04 01:41:50;;;;;;;2.37;2.17;;;8.00;99.90;;;;;;4988488;28;20500;-54
2023/06/04 01:44:17;;;;;;;2.53;1.83;;;7.90;99.90;;;;;;4988664;28;21002;-56
2023/06/04 01:46:43;;;;;;;7.53;1.87;;;7.90;99.90;;;;;;4991030;28;20573;-56
2023/06/04 01:49:10;;;;;;;2.70;2.50;;;7.80;99.90;;;;;;4985574;28;21110;-54
2023/06/04 01:51:37;;;;;;;4.43;1.97;;;7.70;99.90;;;;;;4986878;28;20523;-55
2023/06/04 01:54:03;;;;;;;2.13;1.90;;;7.70;99.90;;;;;;4983629;28;20555;-54
2023/06/04 01:56:30;;;;;;;1.77;1.67;;;7.70;99.90;;;;;;4986558;28;20874;-55
2023/06/04 01:58:58;;;;;;;3.03;2.10;;;7.60;99.90;;;;;;4991090;28;20464;-55
2023/06/04 02:01:24;;;;;;;1.70;1.60;;;7.60;99.90;;;;;;4991446;28;20552;-54
2023/06/04 02:03:52;;;;;;;2.27;1.80;;;7.40;99.90;;;;;;4983505;28;20556;-54
2023/06/04 02:06:18;;;;;;;3.90;2.27;;;7.30;99.90;;;;;;4990837;28;20465;-54
2023/06/04 02:08:45;;;;;;;3.53;1.87;;;7.30;99.90;;;;;;4986528;28;21025;-53
2023/06/04 02:11:11;;;;;;;1.40;1.40;;;7.30;99.90;;;;;;4982151;28;20540;-54
2023/06/04 02:13:38;;;;;;;1.83;1.73;;;7.20;99.90;;;;;;4981969;28;20553;-55
2023/06/04 02:16:07;;;;;;;2.27;2.03;;;7.20;99.90;;;;;;4990168;28;20488;-56
2023/06/04 02:18:33;;;;;;;2.10;1.70;;;7.00;99.90;;;;;;4990794;28;20571;-53
2023/06/04 02:21:00;;;;;;;1.80;1.70;;;7.00;91.20;;;;;;4989568;28;20687;-54
2023/06/04 02:23:26;;;;;;;1.57;1.50;;;7.00;90.40;;;;;;4988990;28;20544;-53
2023/06/04 02:25:53;;;;;;;5.30;2.23;;;6.80;83.30;;;;;;4989326;28;20547;-53
2023/06/04 02:28:19;;;;;;;4.53;2.03;;;6.70;78.30;;;;;;4988365;28;20588;-54
2023/06/04 02:30:46;;;;;;;2.30;2.20;;;6.70;64.30;;;;;;4984224;28;20544;-53
2023/06/04 02:33:15;;;;;;;1.73;1.63;;;6.80;67.50;;;;;;4988986;28;20544;-54
2023/06/04 02:35:41;;;;;;;2.43;2.23;;;6.80;61.00;;;;;;4988778;28;20842;-54
2023/06/04 02:38:08;;;;;;;3.53;1.93;;;6.70;70.70;;;;;;4984196;28;20991;-54
2023/06/04 02:40:34;;;;;;;2.40;1.70;;;6.60;68.00;;;;;;4987729;28;20527;-54
2023/06/04 02:43:01;;;;;;;2.43;1.87;;;6.60;52.10;;;;;;4989701;28;20559;-55
2023/06/04 02:45:28;;;;;;;2.40;2.20;;;6.60;61.70;;;;;;4989385;28;20626;-56
2023/06/04 02:47:55;;;;;;;2.50;1.93;;;6.60;60.10;;;;;;4985954;28;20476;-55
2023/06/04 02:50:23;;;;;;;2.10;2.00;;;6.50;57.80;;;;;;4989821;28;20502;-55
2023/06/04 02:52:49;;;;;;;2.20;2.10;;;6.40;54.80;;;;;;4983834;28;21039;-56
2023/06/04 02:55:16;;;;;;;2.50;2.00;;;6.30;51.50;;;;;;4988114;28;20544;-54
2023/06/04 02:57:43;;;;;;;3.40;2.33;;;6.30;46.60;;;;;;4984117;28;20607;-54
2023/06/04 03:00:12;;;;;;;2.70;1.80;;;6.20;46.50;;;;;;4988700;28;20535;-56
2023/06/04 03:02:40;;;;;;;2.40;2.30;;;6.20;45.10;;;;;;4989134;28;20468;-54
2023/06/04 03:05:10;;;;;;;10.97;2.50;;;6.10;42.80;;;;;;4994714;28;20539;-54
2023/06/04 03:07:38;;;;;;;1.97;1.87;;;6.20;34.40;;;;;;4995025;28;20472;-53
2023/06/04 03:10:06;;;;;;;14.83;2.10;;;6.20;39.20;;;;;;4991759;28;20473;-54
2023/06/04 03:12:32;;;;;;;3.33;1.73;;;6.20;41.90;;;;;;4994510;28;20461;-54
2023/06/04 03:14:59;;;;;;;3.40;1.87;;;6.10;33.40;;;;;;4994463;28;20488;-54
2023/06/04 03:17:27;;;;;;;2.33;2.20;;;6.10;40.40;;;;;;4990276;28;20488;-53
2023/06/04 03:19:53;;;;;;;2.03;1.93;;;6.10;38.90;;;;;;4993177;28;20448;-54
2023/06/04 03:22:20;;;;;;;3.50;2.00;;;6.10;38.90;;;;;;4993670;28;20554;-54
2023/06/04 03:24:48;;;;;;;2.13;1.93;;;6.30;45.30;;;;;;4993411;28;20468;-54
2023/06/04 03:27:14;;;;;;;2.50;1.83;;;6.10;44.90;;;;;;4994312;28;20555;-55
2023/06/04 03:29:41;;;;;;;1.30;1.30;;;6.20;44.20;;;;;;4995437;28;20477;-55
2023/06/04 03:32:08;;;;;;;1.70;1.60;;;6.20;44.00;;;;;;4993511;28;20912;-55
2023/06/04 03:34:35;;;;;;;3.43;2.20;;;6.20;43.80;;;;;;4992139;28;21065;-54
2023/06/04 03:37:02;;;;;;;3.93;2.10;;;6.10;44.60;;;;;;4993020;28;21041;-53
2023/06/04 03:39:29;;;;;;;2.13;2.03;;;6.30;45.00;;;;;;4992270;28;20460;-53
2023/06/04 03:41:56;;;;;;;2.57;2.37;;;6.20;40.50;;;;;;4994716;28;20885;-53
2023/06/04 03:44:23;;;;;;;4.43;2.13;;;6.20;40.90;;;;;;4994520;28;20536;-54
2023/06/04 03:46:50;;;;;;;5.53;1.97;;;6.30;36.60;;;;;;4994126;28;20484;-55
2023/06/04 03:49:17;;;;;;;3.17;1.90;;;6.20;37.30;;;;;;4995145;28;20527;-55
2023/06/04 03:51:44;;;;;;;2.57;2.10;;;6.20;38.30;;;;;;4994628;28;20811;-54
2023/06/04 03:54:11;;;;;;;4.77;2.40;;;6.30;40.40;;;;;;4989658;28;20540;-54
2023/06/04 03:56:38;;;;;;;3.23;2.13;;;6.40;44.20;;;;;;4986086;28;20467;-54
2023/06/04 03:59:05;;;;;;;2.90;2.20;;;6.40;31.10;;;;;;4985035;28;20588;-53
2023/06/04 04:01:33;;;;;;;6.93;1.80;;;6.50;32.40;;;;;;4993449;28;20551;-56
2023/06/04 04:03:59;;;;;;;6.63;2.40;;;6.60;43.60;;;;;;4988418;28;20473;-54
2023/06/04 04:06:26;;;;;;;2.03;1.93;;;6.60;39.10;;;;;;4994107;28;20464;-55
2023/06/04 04:08:53;;;;;;;2.00;1.90;;;6.60;40.80;;;;;;4991767;28;20540;-54
2023/06/04 04:11:19;;;;;;;1.80;1.70;;;6.70;44.10;;;;;;4992471;28;20460;-54
2023/06/04 04:13:46;;;;;;;6.33;2.23;;;6.90;44.70;;;;;;4986928;28;20555;-54
2023/06/04 04:16:15;;;;;;;2.10;2.00;;;6.90;41.30;;;;;;4979475;28;20465;-53
2023/06/04 04:18:43;;;;;;;3.27;2.13;;;6.90;41.60;;;;;;4990554;28;20576;-53
2023/06/04 04:21:10;;;;;;;1.90;1.80;;;7.00;42.50;;;;;;4986895;28;20451;-55
2023/06/04 04:23:39;;;;;;;2.57;2.33;;;7.00;41.00;;;;;;4992311;28;20469;-54
2023/06/04 04:26:06;;;;;;;4.00;2.40;;;7.10;37.40;;;;;;4992176;28;20469;-54
2023/06/04 04:28:34;;;;;;;5.87;2.27;;;7.20;36.10;;;;;;4992332;28;20504;-54
2023/06/04 04:31:02;;;;;;;1.97;1.87;;;7.30;34.60;;;;;;4994205;28;20472;-55
2023/06/04 04:33:32;;;;;;;1.90;1.80;;;7.40;33.10;;;;;;4993937;28;20477;-54
2023/06/04 04:35:59;;;;;;;4.33;2.30;;;7.50;35.10;;;;;;4994333;28;20897;-54
2023/06/04 04:38:25;;;;;;;2.13;2.03;;;7.50;36.40;;;;;;4992314;28;20861;-54
2023/06/04 04:40:53;;;;;;;4.27;2.10;;;7.70;37.00;;;;;;4993724;28;20503;-56
2023/06/04 04:43:29;;;;;;;1.97;1.87;;;7.80;35.10;;;;;;4992923;28;20465;-54
2023/06/04 04:45:56;;;;;;;2.50;2.23;;;7.90;38.70;;;;;;4992086;28;20458;-56
2023/06/04 04:48:22;;;;;;;2.23;1.83;;;8.00;39.50;;;;;;4994124;28;20545;-55
2023/06/04 04:50:50;;;;;;;3.30;2.30;;;8.20;43.60;;;;;;4993549;28;20540;-55
2023/06/04 04:53:17;;;;;;;2.27;2.07;;;8.30;42.90;;;;;;4987561;28;20548;-56
2023/06/04 04:55:43;;;;;;;2.30;2.10;;;8.40;43.10;;;;;;4992963;28;20885;-55
2023/06/04 04:58:10;;;;;;;5.37;2.37;;;8.50;44.70;;;;;;4992213;28;21005;-55
2023/06/04 05:00:36;;;;;;;10.53;2.07;;;8.60;47.10;;;;;;4990735;28;20543;-55
2023/06/04 05:03:03;;;;;;;8.20;2.20;;;8.70;47.20;;;;;;4993999;28;20540;-54
2023/06/04 05:05:30;;;;;;;1.93;1.83;;;8.80;49.20;;;;;;4993575;28;20540;-55
2023/06/04 05:07:57;;;;;;;3.53;1.97;;;9.00;52.10;;;;;;4991591;28;20476;-56
2023/06/04 05:10:24;;;;;;;2.13;2.00;;;9.10;54.80;;;;;;4987056;28;20437;-55
2023/06/04 05:12:55;;;;;;;2.83;2.03;;;9.20;60.20;;;;;;4992476;28;21022;-56
2023/06/04 05:15:22;;;;;;;2.30;2.20;;;9.40;62.90;;;;;;4987783;28;20465;-55
2023/06/04 05:17:49;;;;;;;2.23;2.03;;;9.50;64.00;;;;;;4991988;28;20495;-54
2023/06/04 05:20:16;;;;;;;5.53;2.10;;;9.70;65.70;;;;;;4989476;28;21007;-54
2023/06/04 05:22:43;;;;;;;1.93;1.83;;;9.80;72.80;;;;;;4992611;28;20448;-54
2023/06/04 05:25:11;;;;;;;7.33;2.00;;;9.90;76.20;;;;;;4992150;28;20535;-54
2023/06/04 05:27:38;;;;;;;4.80;1.93;;;10.10;76.70;;;;;;4993035;28;20472;-56
2023/06/04 05:30:05;;;;;;;2.07;1.97;;;10.30;82.10;;;;;;4993362;28;20876;-54
2023/06/04 05:32:32;;;;;;;4.03;2.00;;;10.40;81.10;;;;;;4990655;28;20581;-54
2023/06/04 05:35:00;;;;;;;1.97;1.83;;;10.50;84.00;;;;;;4986017;28;20464;-53
2023/06/04 05:37:28;;;;;;;2.30;2.20;;;10.60;89.30;;;;;;4992845;28;20469;-57
2023/06/04 05:39:55;;;;;;;2.23;2.13;;;10.80;97.00;;;;;;4991922;28;20480;-55
2023/06/04 05:42:24;;;;;;;5.10;2.10;;;10.90;99.90;;;;;;4993088;28;20480;-56
2023/06/04 05:44:51;;;;;;;1.97;1.87;;;11.00;99.90;;;;;;4992741;28;20451;-54
2023/06/04 05:47:18;;;;;;;2.10;1.90;;;11.20;99.90;;;;;;4984639;28;20942;-56
2023/06/04 05:49:45;;;;;;;1.70;1.60;;;11.40;99.90;;;;;;4987839;28;20571;-55
2023/06/04 05:52:12;;;;;;;4.00;2.00;;;11.60;99.90;;;;;;4987136;28;20475;-55
2023/06/04 05:54:38;;;;;;;12.67;2.53;;;11.80;99.90;;;;;;4990605;28;20627;-55
2023/06/04 05:57:06;;;;;;;1.63;1.30;;;12.00;99.90;;;;;;4992610;28;20468;-54
2023/06/04 05:59:33;;;;;;;2.33;2.03;;;12.10;31.30;;;;;;4991922;28;21059;-54
2023/06/04 06:02:00;;;;;;;1.70;1.60;;;12.30;52.80;;;;;;4992626;28;20535;-55
2023/06/04 06:04:27;;;;;;;14.63;1.80;;;12.40;63.20;;;;;;4991239;28;20503;-54
2023/06/04 06:06:53;;;;;;;2.03;1.90;;;12.60;73.20;;;;;;4991210;28;20579;-55
2023/06/04 06:09:20;;;;;;;5.23;2.20;;;12.70;89.20;;;;;;4990826;28;20548;-56
2023/06/04 06:11:47;;;;;;;4.50;1.80;;;12.80;99.90;;;;;;4991057;28;21053;-56
2023/06/04 06:14:13;;;;;;;1.57;1.47;;;12.90;99.90;;;;;;4991269;28;20532;-54
2023/06/04 06:16:41;;;;;;;2.90;1.50;;;13.00;99.90;;;;;;4992196;28;20539;-55
2023/06/04 06:19:08;;;;;;;4.23;1.67;;;13.10;99.90;;;;;;4973212;28;20577;-54
2023/06/04 06:21:34;;;;;;;2.37;1.60;;;13.30;1.40;;;;;;4988522;28;20555;-55
2023/06/04 06:24:01;;;;;;;1.57;1.47;;;13.40;99.90;;;;;;4990589;28;20652;-57
2023/06/04 06:26:27;;;;;;;2.50;1.87;;;13.50;99.90;;;;;;4988679;28;20540;-55
2023/06/04 06:28:54;;;;;;;9.10;1.90;;;13.70;99.90;;;;;;4985845;28;20572;-56
2023/06/04 06:31:21;;;;;;;4.23;1.90;;;13.90;99.90;;;;;;4982953;28;20464;-56
2023/06/04 06:33:48;;;;;;;1.90;1.80;;;13.90;99.90;;;;;;4989182;28;20528;-55
2023/06/04 06:36:18;;;;;;;2.23;1.70;;;13.90;99.90;;;;;;4987350;28;21037;-55
2023/06/04 06:38:45;;;;;;;1.50;1.40;;;14.00;99.90;;;;;;4992615;28;20499;-55
2023/06/04 06:41:12;;;;;;;1.70;1.60;;;14.10;99.90;;;;;;4995553;28;20554;-55
2023/06/04 06:43:39;;;;;;;9.10;1.43;;;14.10;99.90;;;;;;4991279;28;20910;-56
2023/06/04 06:46:05;;;;;;;4.40;1.50;;;14.30;99.90;;;;;;4993360;28;20540;-56
2023/06/04 06:48:32;;;;;;;4.87;2.00;;;14.40;99.90;;;;;;4988878;28;20567;-55
2023/06/04 06:50:59;;;;;;;1.80;1.70;;;14.50;99.90;;;;;;4994015;28;20903;-55
2023/06/04 06:53:26;;;;;;;1.77;1.67;;;14.80;99.90;;;;;;4994290;28;20559;-54
2023/06/04 06:55:52;;;;;;;4.20;1.47;;;14.80;99.90;;;;;;4996042;28;20544;-56
2023/06/04 06:58:19;;;;;;;2.43;1.40;;;15.00;99.90;;;;;;4994103;28;20579;-51
2023/06/04 07:00:45;;;;;;;3.83;1.60;;;15.10;99.90;;;;;;4995921;28;20544;-51
2023/06/04 07:03:12;;;;;;;1.87;1.63;;;15.20;99.90;;;;;;4992629;28;20548;-51
2023/06/04 07:05:39;;;;;;;1.50;1.40;;;15.30;99.90;;;;;;4995432;28;21006;-51
2023/06/04 07:08:06;;;;;;;5.13;1.80;;;15.30;99.90;;;;;;4995071;28;20484;-51
2023/06/04 07:10:33;;;;;;;2.40;1.20;;;15.40;99.90;;;;;;4995691;28;20955;-51
2023/06/04 07:13:00;;;;;;;4.03;1.37;;;15.60;99.90;;;;;;4993530;28;20492;-51
2023/06/04 07:15:26;;;;;;;11.23;1.33;;;15.70;99.90;;;;;;4991939;28;20540;-51
2023/06/04 07:17:53;;;;;;;2.87;1.27;;;15.80;99.90;;;;;;4993906;28;20559;-51
2023/06/04 07:20:19;;;;;;;1.50;1.40;;;15.90;99.90;;;;;;4990320;28;20484;-51
2023/06/04 07:22:46;;;;;;;1.30;1.20;;;16.00;99.90;;;;;;4991256;28;20920;-51
2023/06/04 07:25:14;;;;;;;2.30;1.40;;;16.10;99.90;;;;;;4995095;28;20520;-51
2023/06/04 07:27:40;;;;;;;1.00;1.00;;;16.20;99.90;;;;;;4995595;28;20856;-51
2023/06/04 07:30:08;;;;;;;1.73;1.37;;;16.30;99.90;;;;;;4991677;28;20556;-50
2023/06/04 07:32:35;;;;;;;3.03;1.33;;;16.40;99.90;;;;;;4993862;28;20835;-51
2023/06/04 07:35:02;;;;;;;3.23;1.40;;;16.50;99.90;;;;;;4990993;28;20539;-51
2023/06/04 07:37:29;;;;;;;1.20;1.20;;;16.60;99.90;;;;;;4987616;28;20931;-51
2023/06/04 07:39:56;;;;;;;1.20;1.10;;;16.70;99.90;;;;;;4992066;28;20484;-51
2023/06/04 07:42:24;;;;;;;1.97;1.50;;;16.80;99.90;;;;;;4989022;28;20547;-51
2023/06/04 07:44:51;;;;;;;1.20;1.10;;;16.90;99.90;;;;;;4989317;28;20623;-51
2023/06/04 07:47:17;;;;;;;3.90;1.50;;;17.00;99.90;;;;;;4991871;28;20484;-51
2023/06/04 07:49:44;;;;;;;1.50;1.40;;;17.10;99.90;;;;;;4990557;28;20532;-51
2023/06/04 07:52:10;;;;;;;3.90;1.10;;;17.20;99.90;;;;;;4990647;28;20523;-51
2023/06/04 07:54:37;;;;;;;1.13;1.13;;;17.20;99.90;;;;;;4988767;28;21020;-50
2023/06/04 07:57:03;;;;;;;3.83;0.97;;;17.30;99.90;;;;;;4990716;28;20551;-51
2023/06/04 07:59:31;;;;;;;1.63;1.53;;;17.40;99.90;;;;;;4988436;28;20584;-51
2023/06/04 08:01:58;;;;;;;2.53;1.00;;;17.40;99.90;;;;;;4989413;28;21232;-51
2023/06/04 08:04:24;;;;;;;1.43;1.10;;;17.50;99.90;;;;;;4993054;28;20555;-51
2023/06/04 08:06:51;;;;;;;2.07;1.33;;;17.60;99.90;;;;;;4990166;28;20600;-50
2023/06/04 08:09:18;;;;;;;5.13;1.13;;;17.80;99.90;;;;;;4988399;28;20552;-50
2023/06/04 08:11:45;;;;;;;4.37;1.10;;;17.80;95.30;;;;;;4990870;28;20564;-50
2023/06/04 08:14:12;;;;;;;1.10;1.00;;;18.00;99.90;;;;;;4993267;28;20998;-50
2023/06/04 08:16:40;;;;;;;1.07;0.97;;;18.20;99.90;;;;;;4992187;28;20459;-50
2023/06/04 08:19:07;;;;;;;1.23;1.10;;;18.40;99.90;;;;;;4982502;28;20491;-50
2023/06/04 08:21:35;;;;;;;1.30;1.20;;;18.50;99.90;;;;;;4989384;28;20962;-50
2023/06/04 08:24:02;;;;;;;1.23;1.10;;;18.60;86.10;;;;;;4987984;28;20484;-50
2023/06/04 08:26:28;;;;;;;0.80;0.80;;;18.70;86.90;;;;;;4990194;28;20461;-49
2023/06/04 08:28:56;;;;;;;0.90;0.90;;;18.70;94.40;;;;;;4985214;28;20887;-49
2023/06/04 08:31:22;;;;;;;1.30;1.20;;;18.80;82.90;;;;;;4991401;28;20552;-51
2023/06/04 08:33:50;;;;;;;1.80;1.10;;;18.90;99.90;;;;;;4989497;28;20544;-51
2023/06/04 08:36:17;;;;;;;1.13;1.07;;;18.90;80.60;;;;;;4985383;28;20560;-50
2023/06/04 08:38:43;;;;;;;5.60;1.40;;;19.00;79.30;;;;;;4986470;28;20563;-50
2023/06/04 08:41:15;;;;;;;9.60;1.23;;;19.10;93.40;;;;;;4985560;28;20592;-50
2023/06/04 08:43:44;;;;;;;1.60;1.50;;;19.40;20.70;;;;;;4986335;28;21132;-50
2023/06/04 08:46:12;;;;;;;1.20;1.10;;;19.60;71.90;;;;;;4987199;28;20472;-51
2023/06/04 08:48:39;;;;;;;1.00;1.00;;;19.60;23.30;;;;;;4988678;28;20512;-51
2023/06/04 08:51:09;;;;;;;1.10;0.90;;;19.60;25.00;;;;;;4985464;28;20461;-51
2023/06/04 08:53:36;;;;;;;2.93;0.90;;;19.60;24.10;;;;;;4986075;28;21073;-51
2023/06/04 08:56:03;;;;;;;0.93;0.93;;;19.70;24.70;;;;;;4988204;28;20461;-50
2023/06/04 08:58:32;;;;;;;1.00;1.00;;;19.70;26.20;;;;;;4985194;28;20584;-51
2023/06/04 09:01:00;;;;;;;0.93;0.93;;;19.90;25.10;;;;;;4990439;28;20567;-52
2023/06/04 09:03:27;;;;;;;1.47;1.00;;;20.10;25.80;;;;;;4992517;28;20508;-52
2023/06/04 09:05:54;;;;;;;2.27;1.10;;;20.30;26.30;;;;;;4990564;28;20556;-52
2023/06/04 09:08:23;;;;;;;1.30;1.00;;;20.30;27.50;;;;;;4988354;28;20575;-51
2023/06/04 09:10:53;;;;;;;1.90;0.90;;;20.50;27.60;;;;;;4989104;28;20461;-52
2023/06/04 09:13:23;;;;;;;0.97;0.97;;;20.70;28.90;;;;;;4990348;28;20571;-52
2023/06/04 09:15:59;;;;;;;6.60;0.93;;;20.50;28.50;;;;;;4986735;28;20555;-53
2023/06/04 09:18:26;;;;;;;1.10;1.00;;;20.60;30.00;;;;;;4988562;28;20504;-53
2023/06/04 09:21:01;;;;;;;6.30;1.20;;;20.40;31.20;;;;;;4991915;28;20854;-52
2023/06/04 09:23:30;;;;;;;0.90;0.90;;;20.50;29.80;;;;;;4991224;28;20474;-52
2023/06/04 09:25:56;;;;;;;0.90;0.90;;;20.70;31.50;;;;;;4990100;28;20477;-52
2023/06/04 09:28:23;;;;;;;8.00;1.20;;;20.60;29.50;;;;;;4992481;28;20556;-51
2023/06/04 09:30:53;;;;;;;7.07;1.00;;;20.90;27.90;;;;;;4990868;28;20551;-52
2023/06/04 09:33:20;;;;;;;1.67;0.93;;;20.90;29.50;;;;;;4991768;28;20552;-52
2023/06/04 09:35:54;;;;;;;2.50;1.17;;;21.10;30.10;;;;;;4993050;28;20472;-53
2023/06/04 09:38:20;;;;;;;1.67;1.27;;;21.20;32.50;;;;;;4990923;28;20955;-53
2023/06/04 09:40:49;;;;;;;1.27;1.17;;;21.20;30.50;;;;;;4988223;28;20489;-53
2023/06/04 09:43:23;;;;;;;5.40;1.03;;;21.60;31.70;;;;;;4988056;28;21239;-52
2023/06/04 09:45:49;;;;;;;2.00;1.03;;;21.70;32.80;;;;;;4987421;28;20464;-51
2023/06/04 09:48:21;;;;;;;1.37;1.30;;;21.60;33.10;;;;;;4983741;28;20483;-53
2023/06/04 09:50:48;;;;;;;1.67;0.90;;;22.00;33.90;;;;;;4990571;28;20460;-52
2023/06/04 09:53:15;;;;;;;1.13;1.03;;;21.90;33.80;;;;;;4988706;28;20460;-52
2023/06/04 09:55:42;;;;;;;2.87;1.50;;;22.30;33.90;;;;;;4992541;28;20455;-51
2023/06/04 09:58:11;;;;;;;3.17;0.90;;;22.20;37.40;;;;;;4990103;28;20515;-52
2023/06/04 10:00:38;;;;;;;1.10;0.97;;;22.00;34.90;;;;;;4990806;28;20579;-52
2023/06/04 10:03:06;;;;;;;1.33;1.20;;;22.10;34.10;;;;;;4990420;28;20464;-53
2023/06/04 10:05:34;;;;;;;1.07;0.67;;;22.20;34.10;;;;;;4986455;28;20548;-53
2023/06/04 10:08:04;;;;;;;0.93;0.93;;;22.60;33.60;;;;;;4991080;28;20512;-51
2023/06/04 10:10:35;;;;;;;3.10;0.97;;;22.80;34.90;;;;;;4988877;28;20467;-53
2023/06/04 10:13:05;;;;;;;0.90;0.90;;;22.80;34.40;;;;;;4991321;28;20526;-52
2023/06/04 10:15:34;;;;;;;1.30;1.20;;;23.00;33.90;;;;;;4991449;28;20869;-53
2023/06/04 10:18:03;;;;;;;2.30;1.33;;;22.80;37.30;;;;;;4992515;28;20468;-52
2023/06/04 10:20:30;;;;;;;1.00;0.87;;;23.00;35.60;;;;;;4991459;28;21081;-53
2023/06/04 10:22:57;;;;;;;3.70;0.97;;;22.90;37.60;;;;;;4990637;28;20544;-52
2023/06/04 10:25:26;;;;;;;1.47;1.20;;;23.30;35.90;;;;;;4990110;28;21010;-52
2023/06/04 10:27:53;;;;;;;1.73;1.23;;;23.50;38.00;;;;;;4992345;28;20556;-52
2023/06/04 10:30:20;;;;;;;1.43;0.83;;;24.00;38.70;;;;;;4985345;28;20543;-53
2023/06/04 10:32:48;;;;;;;0.97;0.70;;;23.70;37.20;;;;;;4992300;28;20548;-53
2023/06/04 10:35:15;;;;;;;1.10;1.00;;;23.60;37.90;;;;;;4991482;28;20547;-53
2023/06/04 10:37:42;;;;;;;2.10;0.90;;;23.40;36.50;;;;;;4990861;28;20543;-52
2023/06/04 10:40:10;;;;;;;1.73;1.20;;;23.70;39.00;;;;;;4990193;28;20616;-53
2023/06/04 10:42:41;;;;;;;2.97;1.10;;;23.10;36.70;;;;;;4982494;28;20559;-51
2023/06/04 10:45:09;;;;;;;0.80;0.77;;;23.20;36.90;;;;;;4989797;28;20540;-51
2023/06/04 10:47:39;;;;;;;1.83;1.17;;;23.90;35.00;;;;;;4990647;28;20850;-52
2023/06/04 10:50:12;;;;;;;1.43;1.30;;;24.50;36.20;;;;;;4987792;28;20489;-53
2023/06/04 10:52:39;;;;;;;0.90;0.90;;;24.50;38.90;;;;;;4985662;28;20491;-53
2023/06/04 10:55:08;;;;;;;1.07;1.07;;;24.70;34.70;;;;;;4990082;28;21084;-53
2023/06/04 10:57:34;;;;;;;1.03;0.90;;;24.80;36.30;;;;;;4989043;28;20930;-53
2023/06/04 11:00:04;;;;;;;1.10;1.00;;;25.30;38.10;;;;;;4980641;28;20580;-53
2023/06/04 11:02:31;;;;;;;1.10;1.10;;;24.80;39.60;;;;;;4987398;28;20476;-51
2023/06/04 11:05:05;;;;;;;1.30;1.20;;;23.90;35.30;;;;;;4988957;28;20489;-53
2023/06/04 11:07:44;;;;;;;1.73;0.87;;;23.70;36.80;;;;;;4985898;28;20570;-51
2023/06/04 11:10:11;;;;;;;1.20;1.10;;;24.40;35.80;;;;;;4987212;28;20974;-54
2023/06/04 11:12:45;;;;;;;7.20;1.67;;;23.60;38.70;;;;;;4987860;28;20578;-51
2023/06/04 11:15:12;;;;;;;3.90;1.07;;;23.80;36.10;;;;;;4987615;28;20960;-52
2023/06/04 11:17:38;;;;;;;5.53;1.13;;;23.70;37.20;;;;;;4990823;28;20548;-52
2023/06/04 11:20:17;;;;;;;0.90;0.90;;;23.80;33.50;;;;;;4988219;28;20583;-54
2023/06/04 11:22:51;;;;;;;2.30;1.00;;;23.70;33.40;;;;;;4984962;28;20476;-52
2023/06/04 11:25:18;;;;;;;7.30;0.80;;;23.90;37.10;;;;;;4975849;28;21026;-53
2023/06/04 11:27:45;;;;;;;1.77;1.10;;;24.10;37.00;;;;;;4986673;28;20552;-51
2023/06/04 11:30:13;;;;;;;1.30;1.10;;;24.00;37.00;;;;;;4995749;28;20480;-51
2023/06/04 11:32:40;;;;;;;2.40;1.10;;;23.70;35.80;;;;;;4991209;28;21041;-52
2023/06/04 11:35:07;;;;;;;3.80;1.60;;;22.40;38.70;;;;;;4993810;28;20548;-52
2023/06/04 11:37:34;;;;;;;1.67;1.33;;;22.90;37.60;;;;;;4993522;28;20508;-51
2023/06/04 11:40:05;;;;;;;1.20;1.10;;;23.50;33.60;;;;;;4994245;28;20972;-52
2023/06/04 11:42:32;;;;;;;4.30;1.00;;;23.70;33.60;;;;;;4991069;28;20464;-54
2023/06/04 11:44:58;;;;;;;1.20;1.10;;;24.00;36.30;;;;;;4991669;28;20815;-52
2023/06/04 11:47:25;;;;;;;1.33;1.20;;;23.80;35.00;;;;;;4983615;28;20917;-52
2023/06/04 11:49:56;;;;;;;1.00;0.83;;;23.70;37.20;;;;;;4989643;28;20488;-52
2023/06/04 11:52:22;;;;;;;3.17;0.70;;;23.70;34.40;;;;;;4989554;28;20557;-53
2023/06/04 11:54:50;;;;;;;2.10;1.03;;;24.30;38.50;;;;;;4991613;28;20469;-52
2023/06/04 11:57:18;;;;;;;0.83;0.83;;;24.00;38.60;;;;;;4989007;28;20911;-51
2023/06/04 11:59:44;;;;;;;1.07;1.07;;;23.90;38.90;;;;;;4994849;28;20567;-52
2023/06/04 12:02:11;;;;;;;1.17;1.17;;;24.10;36.20;;;;;;4994839;28;20536;-52
2023/06/04 12:04:38;;;;;;;5.33;1.17;;;23.50;39.80;;;;;;4993529;28;20468;-53
2023/06/04 12:07:06;;;;;;;1.23;0.90;;;23.80;37.40;;;;;;4986402;28;20476;-52
2023/06/04 12:09:34;;;;;;;1.10;1.00;;;23.30;38.50;;;;;;4994322;28;20445;-52
2023/06/04 12:12:02;;;;;;;1.93;1.30;;;23.70;36.60;;;;;;4993858;28;20448;-51
2023/06/04 12:14:31;;;;;;;2.03;0.83;;;24.00;37.70;;;;;;4994254;28;20444;-53
2023/06/04 12:16:57;;;;;;;0.73;0.73;;;24.00;35.40;;;;;;4994362;28;20560;-52
2023/06/04 12:19:25;;;;;;;1.13;1.00;;;24.10;37.50;;;;;;4993682;28;20479;-53
2023/06/04 12:22:02;;;;;;;1.10;1.00;;;24.10;38.20;;;;;;4994004;28;20564;-51
2023/06/04 12:24:29;;;;;;;2.70;0.97;;;24.50;39.00;;;;;;4989187;28;20465;-53
2023/06/04 12:27:03;;;;;;;2.90;0.87;;;24.60;37.60;;;;;;4992992;28;20546;-53
2023/06/04 12:29:31;;;;;;;3.73;1.17;;;24.80;39.30;;;;;;4989194;28;20473;-51
2023/06/04 12:32:05;;;;;;;0.90;0.90;;;25.00;38.90;;;;;;4992145;28;20435;-52
2023/06/04 12:34:32;;;;;;;1.30;1.20;;;24.90;39.60;;;;;;4989607;28;20826;-51
2023/06/04 12:36:58;;;;;;;0.80;0.80;;;25.20;41.20;;;;;;4982495;28;20568;-50
2023/06/04 12:39:25;;;;;;;1.17;0.97;;;25.70;41.60;;;;;;4989850;28;20540;-50
2023/06/04 12:41:51;;;;;;;0.90;0.90;;;25.30;39.90;;;;;;4992157;28;20622;-50
2023/06/04 12:44:18;;;;;;;1.27;1.03;;;25.30;40.80;;;;;;4993900;28;20543;-50
2023/06/04 12:46:45;;;;;;;1.27;1.17;;;25.50;41.00;;;;;;4985349;28;20552;-51
2023/06/04 12:49:12;;;;;;;1.93;1.07;;;25.70;41.80;;;;;;4993178;28;20519;-51
2023/06/04 12:51:39;;;;;;;1.10;0.83;;;24.90;39.80;;;;;;4992953;28;20465;-52